Time;durP1;ratioP1;P1;durP2;ratioP2;P2;SDS_P1;SDS_P2;PMS_P1;PMS_P2;Temp;Humidity;BMP_temperature;BMP_pressure;BME280_temperature;BME280_humidity;BME280_pressure;Samples;Min_cycle;Max_cycle;Signal;HPM_P1;HPM_P2
2022/09/25 00:01:31;;;;;;;3.50;3.20;;;;;;;10.56;100.00;97989.16;15338122;19;20006;-76
2022/09/25 00:06:57;;;;;;;3.88;2.95;;;;;;;10.53;100.00;97984.97;15306564;19;20526;-76
2022/09/25 00:12:22;;;;;;;4.80;3.97;;;;;;;10.53;100.00;97984.09;15284909;19;20032;-77
2022/09/25 00:17:49;;;;;;;5.03;3.80;;;;;;;10.52;100.00;97999.44;15291521;19;20370;-77
2022/09/25 00:23:14;;;;;;;4.20;3.80;;;;;;;10.46;100.00;98000.13;15293176;19;20378;-78
2022/09/25 00:28:38;;;;;;;3.65;3.35;;;;;;;10.36;100.00;97994.88;15298034;19;20010;-77
2022/09/25 00:34:07;;;;;;;5.68;3.70;;;;;;;10.33;100.00;97989.84;15294247;19;20013;-77
2022/09/25 00:39:31;;;;;;;4.00;3.35;;;;;;;10.26;100.00;97986.16;15297299;19;20017;-77
2022/09/25 00:44:59;;;;;;;3.55;3.25;;;;;;;10.27;100.00;97987.84;15293048;19;20928;-76
2022/09/25 00:50:36;;;;;;;4.10;3.70;;;;;;;10.27;100.00;97985.97;15316853;19;20041;-75
2022/09/25 00:56:04;;;;;;;4.20;3.78;;;;;;;10.22;100.00;97971.34;15318678;19;20082;-77
2022/09/25 01:01:29;;;;;;;6.18;5.57;;;;;;;10.16;100.00;97979.09;15286628;19;20010;-77
2022/09/25 01:06:57;;;;;;;6.18;5.50;;;;;;;10.14;100.00;97975.75;15287051;19;20479;-77
2022/09/25 01:12:21;;;;;;;5.70;5.20;;;;;;;10.11;100.00;97975.25;15285030;19;20092;-77
2022/09/25 01:17:58;;;;;;;5.22;4.72;;;;;;;10.08;100.00;97972.88;15286981;19;20039;-75
2022/09/25 01:23:45;;;;;;;5.10;4.60;;;;;;;10.00;100.00;97971.03;15289688;19;20088;-77
2022/09/25 01:29:18;;;;;;;5.93;4.50;;;;;;;9.98;100.00;97970.34;15286244;19;20022;-76
2022/09/25 01:34:51;;;;;;;5.22;3.90;;;;;;;9.95;100.00;97971.53;15283147;19;20357;-76
2022/09/25 01:40:25;;;;;;;4.90;4.40;;;;;;;9.93;100.00;97973.56;15281132;19;20042;-77
2022/09/25 01:46:00;;;;;;;5.15;4.40;;;;;;;9.93;100.00;97978.09;15285438;19;20010;-77
2022/09/25 01:51:31;;;;;;;4.45;4.05;;;;;;;9.95;100.00;97982.31;15278899;19;20014;-76
2022/09/25 01:56:59;;;;;;;5.47;4.47;;;;;;;9.86;100.00;97980.63;15280580;19;20014;-77
2022/09/25 02:02:31;;;;;;;7.07;4.70;;;;;;;9.81;100.00;97985.66;15280069;19;20035;-77
2022/09/25 02:08:02;;;;;;;5.65;4.32;;;;;;;9.80;100.00;97983.97;15282044;19;20371;-76
2022/09/25 02:13:32;;;;;;;4.27;3.87;;;;;;;9.80;100.00;97982.13;15279842;19;20024;-77
2022/09/25 02:24:43;;;;;;;5.00;4.50;;;;;;;9.75;100.00;97987.16;15282338;19;20033;-77
2022/09/25 02:30:15;;;;;;;5.88;4.70;;;;;;;9.69;100.00;97987.84;15272715;19;20025;-77
2022/09/25 02:35:43;;;;;;;5.22;4.60;;;;;;;9.63;100.00;97985.81;15278335;19;20010;-78
2022/09/25 02:41:17;;;;;;;5.38;4.00;;;;;;;9.61;100.00;97982.44;15271985;19;20455;-78
2022/09/25 02:46:53;;;;;;;5.50;4.80;;;;;;;9.59;100.00;97984.44;15277994;19;20573;-78
2022/09/25 02:52:24;;;;;;;5.90;4.30;;;;;;;9.57;100.00;97979.25;15272558;19;20368;-80
2022/09/25 02:57:56;;;;;;;5.07;4.50;;;;;;;9.51;100.00;97988.81;15275234;19;20017;-78
2022/09/25 03:03:25;;;;;;;6.63;4.78;;;;;;;9.44;100.00;97981.56;15268474;19;20059;-77
2022/09/25 03:09:02;;;;;;;4.85;4.43;;;;;;;9.43;100.00;97980.75;15270460;19;20014;-77
2022/09/25 03:14:29;;;;;;;6.00;5.40;;;;;;;9.38;100.00;97977.69;15270088;19;20018;-79
2022/09/25 03:19:53;;;;;;;5.95;5.25;;;;;;;9.31;100.00;97973.97;15273862;19;20487;-79
2022/09/25 03:25:21;;;;;;;9.38;6.63;;;;;;;9.27;100.00;97969.94;15269805;19;20062;-78
2022/09/25 03:30:47;;;;;;;7.88;6.82;;;;;;;9.19;100.00;97966.22;15287852;19;20050;-78
2022/09/25 03:36:17;;;;;;;7.35;6.65;;;;;;;9.17;100.00;97978.16;15299679;19;20022;-77
2022/09/25 03:41:44;;;;;;;6.35;5.25;;;;;;;9.14;100.00;97978.47;15351619;19;20017;-78
2022/09/25 03:47:09;;;;;;;7.55;5.03;;;;;;;9.14;100.00;97975.78;15281830;19;20439;-78
2022/09/25 03:52:33;;;;;;;5.85;4.80;;;;;;;9.12;100.00;97969.72;15284187;19;20018;-78
2022/09/25 03:58:01;;;;;;;4.38;3.97;;;;;;;9.11;100.00;97968.91;15284715;19;20010;-77
2022/09/25 04:03:26;;;;;;;5.85;4.50;;;;;;;9.09;100.00;97960.16;15280199;19;20452;-76
2022/09/25 04:08:52;;;;;;;5.30;4.47;;;;;;;9.07;100.00;97959.47;15279133;19;20014;-77
2022/09/25 04:14:19;;;;;;;4.72;4.28;;;;;;;9.03;100.00;97961.66;15279325;19;20010;-77
2022/09/25 04:19:45;;;;;;;6.43;4.30;;;;;;;8.98;100.00;97961.28;15278404;19;20023;-78
2022/09/25 04:25:09;;;;;;;5.20;4.70;;;;;;;8.96;100.00;97970.50;15283563;19;20026;-78
2022/09/25 04:30:44;;;;;;;5.83;4.80;;;;;;;8.91;100.00;97957.56;15287204;19;20046;-77
2022/09/25 04:36:09;;;;;;;5.97;5.38;;;;;;;8.89;100.00;97960.41;15279895;19;20745;-77
2022/09/25 04:41:34;;;;;;;5.07;4.57;;;;;;;8.89;100.00;97976.53;15276953;19;20057;-77
2022/09/25 04:47:03;;;;;;;5.93;4.88;;;;;;;8.88;100.00;97979.38;15280934;19;20021;-77
2022/09/25 04:52:30;;;;;;;5.47;4.97;;;;;;;8.89;100.00;97973.00;15284735;19;20017;-78
2022/09/25 04:57:58;;;;;;;5.25;4.60;;;;;;;8.91;100.00;97976.38;15289732;19;20014;-77
2022/09/25 05:03:26;;;;;;;6.93;5.40;;;;;;;8.93;100.00;97979.75;15285009;19;20056;-77
2022/09/25 05:08:51;;;;;;;6.20;5.15;;;;;;;8.90;100.00;97980.91;15288839;19;20034;-77
2022/09/25 05:14:16;;;;;;;5.93;5.13;;;;;;;8.94;100.00;97979.56;15281349;19;20028;-77
2022/09/25 05:19:46;;;;;;;5.80;5.25;;;;;;;8.95;100.00;97985.78;15292210;19;20030;-79
2022/09/25 05:25:11;;;;;;;7.43;5.55;;;;;;;8.92;100.00;97984.25;15291597;19;20029;-79
2022/09/25 05:30:38;;;;;;;7.15;5.60;;;;;;;8.89;100.00;97987.28;15286433;19;20531;-79
2022/09/25 05:36:07;;;;;;;8.52;5.47;;;;;;;8.86;100.00;97987.59;15292670;19;20035;-79
2022/09/25 05:41:33;;;;;;;6.15;5.03;;;;;;;8.84;100.00;97994.97;15291620;19;20010;-78
2022/09/25 05:46:58;;;;;;;5.03;4.53;;;;;;;8.87;100.00;98005.41;15293387;19;20559;-77
2022/09/25 05:52:26;;;;;;;5.13;4.63;;;;;;;8.90;100.00;97998.88;15282949;19;20014;-79
2022/09/25 05:57:50;;;;;;;6.38;5.10;;;;;;;8.94;100.00;98005.59;15296100;19;20010;-78
2022/09/25 06:03:15;;;;;;;6.55;5.00;;;;;;;9.01;100.00;98003.09;15293444;19;20024;-79
2022/09/25 06:08:45;;;;;;;5.90;5.22;;;;;;;9.11;100.00;98003.84;15343194;19;20054;-80
2022/09/25 06:14:10;;;;;;;5.50;4.50;;;;;;;9.18;100.00;98001.31;15318693;19;20026;-81
2022/09/25 06:19:36;;;;;;;4.60;4.20;;;;;;;9.29;100.00;98008.25;15291186;19;20380;-80
2022/09/25 06:25:03;;;;;;;5.88;4.10;;;;;;;9.36;100.00;98011.94;15297533;19;20020;-79
2022/09/25 06:30:33;;;;;;;4.60;4.20;;;;;;;9.46;100.00;98003.75;15293281;19;20872;-81
2022/09/25 06:36:00;;;;;;;5.15;4.38;;;;;;;9.53;100.00;98000.25;15291596;19;20014;-79
2022/09/25 06:41:28;;;;;;;6.45;4.88;;;;;;;9.58;100.00;98007.81;15292434;19;20055;-80
2022/09/25 06:46:58;;;;;;;5.47;4.40;;;;;;;9.64;100.00;98011.69;15291486;19;20047;-80
2022/09/25 06:52:23;;;;;;;4.78;4.20;;;;;;;9.74;100.00;98001.63;15288872;19;20014;-79
2022/09/25 06:57:50;;;;;;;5.35;4.13;;;;;;;9.84;100.00;98002.28;15294242;19;20020;-81
2022/09/25 07:09:02;;;;;;;5.88;4.85;;;;;;;10.06;100.00;98005.31;15336149;19;20035;-80
2022/09/25 07:14:32;;;;;;;5.90;5.30;;;;;;;10.20;100.00;98006.53;15338423;19;20019;-80
2022/09/25 07:19:57;;;;;;;5.43;4.90;;;;;;;10.31;100.00;98005.31;15296433;19;20018;-81
2022/09/25 07:25:21;;;;;;;5.93;5.13;;;;;;;10.46;100.00;98006.34;15298604;19;20014;-81
2022/09/25 07:30:50;;;;;;;4.68;4.25;;;;;;;10.63;100.00;98006.31;15306461;19;20029;-84
2022/09/25 07:36:17;;;;;;;4.30;3.60;;;;;;;10.75;100.00;98004.94;15299996;19;20035;-82
2022/09/25 07:41:42;;;;;;;5.53;4.50;;;;;;;10.85;100.00;97993.94;15294215;19;20054;-83
2022/09/25 07:47:13;;;;;;;4.93;4.43;;;;;;;10.95;100.00;97988.38;15299711;19;20014;-82
2022/09/25 07:52:40;;;;;;;5.55;4.95;;;;;;;11.05;100.00;97996.25;15312134;19;20021;-84
2022/09/25 07:58:05;;;;;;;6.65;5.18;;;;;;;11.17;100.00;97986.72;15304810;19;20375;-83
2022/09/25 08:03:33;;;;;;;6.47;5.88;;;;;;;11.27;100.00;97985.69;15300632;19;20042;-82
2022/09/25 08:09:00;;;;;;;7.88;6.00;;;;;;;11.41;100.00;97988.47;15302949;19;20022;-82
2022/09/25 08:14:27;;;;;;;6.88;6.18;;;;;;;11.55;100.00;97988.75;15298675;19;20661;-83
2022/09/25 08:19:55;;;;;;;7.75;5.60;;;;;;;11.73;100.00;97988.47;15291337;19;20079;-82
2022/09/25 08:25:20;;;;;;;7.10;5.68;;;;;;;11.90;100.00;97981.06;15292405;19;20010;-84
2022/09/25 08:30:48;;;;;;;7.85;5.90;;;;;;;12.08;100.00;97967.28;15323016;19;20010;-81
2022/09/25 08:36:17;;;;;;;6.43;5.32;;;;;;;12.30;100.00;97970.13;15327496;19;19999;-81
2022/09/25 08:41:49;;;;;;;5.95;5.10;;;;;;;12.54;100.00;97969.03;15319625;19;20014;-81
2022/09/25 08:53:07;;;;;;;5.68;5.07;;;;;;;13.09;100.00;97953.34;15318985;19;20524;-81
2022/09/25 08:58:37;;;;;;;5.63;4.88;;;;;;;13.34;100.00;97944.91;15322350;19;20015;-82
2022/09/25 09:04:06;;;;;;;5.18;4.60;;;;;;;13.62;100.00;97929.81;15315523;19;20074;-82
2022/09/25 09:09:40;;;;;;;4.75;4.35;;;;;;;13.89;100.00;97936.31;15326610;19;20026;-84
2022/09/25 09:15:17;;;;;;;5.40;4.22;;;;;;;13.97;100.00;97919.09;15325848;19;20010;-81
2022/09/25 09:20:51;;;;;;;6.78;4.30;;;;;;;14.23;100.00;97914.94;15310964;19;20025;-80
2022/09/25 09:26:25;;;;;;;5.70;4.45;;;;;;;14.51;100.00;97928.47;15317239;19;20038;-80
2022/09/25 09:32:02;;;;;;;6.47;4.10;;;;;;;14.71;100.00;97927.75;15315865;19;20019;-82
2022/09/25 09:37:34;;;;;;;4.47;4.07;;;;;;;14.71;100.00;97920.47;15333884;19;20007;-82
2022/09/25 09:43:10;;;;;;;5.07;4.30;;;;;;;14.82;100.00;97926.38;15334659;19;20006;-81
2022/09/25 09:48:41;;;;;;;4.82;4.28;;;;;;;14.98;100.00;97923.31;15325974;19;20444;-80
2022/09/25 09:54:12;;;;;;;5.50;4.15;;;;;;;15.07;100.00;97919.41;15298066;19;20015;-82
2022/09/25 09:59:46;;;;;;;5.30;4.28;;;;;;;15.06;100.00;97917.72;15311293;19;20015;-81
2022/09/25 10:05:29;;;;;;;4.30;3.90;;;;;;;15.23;100.00;97914.63;15306226;19;20006;-83
2022/09/25 10:11:02;;;;;;;6.05;4.03;;;;;;;15.26;100.00;97906.09;15319303;19;20056;-83
2022/09/25 10:16:29;;;;;;;4.00;3.70;;;;;;;15.20;100.00;97898.78;15319675;19;20015;-83
2022/09/25 10:21:59;;;;;;;8.63;4.50;;;;;;;15.22;100.00;97897.53;15304029;19;20035;-82
2022/09/25 10:27:32;;;;;;;5.28;4.28;;;;;;;15.37;100.00;97894.63;15293342;19;20018;-81
2022/09/25 10:33:08;;;;;;;4.75;3.65;;;;;;;15.54;100.00;97880.69;15298231;19;20019;-81
2022/09/25 10:38:38;;;;;;;5.72;4.00;;;;;;;15.71;100.00;97879.22;15308025;19;20086;-82
2022/09/25 10:44:08;;;;;;;4.30;3.75;;;;;;;15.83;100.00;97870.44;15311830;19;20066;-81
2022/09/25 10:55:33;;;;;;;6.80;3.90;;;;;;;16.23;100.00;97856.06;15304053;19;20007;-81
2022/09/25 11:01:02;;;;;;;3.95;3.65;;;;;;;16.37;100.00;97860.41;15328549;19;20018;-80
2022/09/25 11:06:37;;;;;;;4.30;3.90;;;;;;;16.31;100.00;97862.09;15329648;19;20019;-80
2022/09/25 11:12:15;;;;;;;5.40;3.63;;;;;;;16.42;100.00;97857.03;15287483;19;20018;-80
2022/09/25 11:17:42;;;;;;;5.40;3.47;;;;;;;16.43;100.00;97853.28;15294071;19;20014;-82
2022/09/25 11:23:23;;;;;;;6.40;3.55;;;;;;;16.44;100.00;97850.38;15282426;19;20059;-83
2022/09/25 11:28:56;;;;;;;3.10;2.80;;;;;;;16.49;100.00;97853.25;15291347;19;20049;-80
2022/09/25 11:34:42;;;;;;;4.22;3.00;;;;;;;16.62;100.00;97846.97;15289530;19;20061;-80
2022/09/25 11:46:12;;;;;;;3.35;2.88;;;;;;;16.78;100.00;97836.63;15284004;19;20019;-80
2022/09/25 11:52:04;;;;;;;3.45;2.78;;;;;;;16.81;100.00;97843.53;15308772;19;20018;-80
2022/09/25 11:57:36;;;;;;;3.10;2.70;;;;;;;16.87;100.00;97843.53;15306617;19;20018;-80
2022/09/25 12:03:08;;;;;;;4.85;2.97;;;;;;;17.06;100.00;97838.22;15298061;19;20490;-80
2022/09/25 12:08:49;;;;;;;2.67;2.28;;;;;;;17.14;100.00;97818.91;15301683;19;20098;-79
2022/09/25 12:14:36;;;;;;;3.42;2.45;;;;;;;17.46;100.00;97823.50;15297039;19;20054;-78
2022/09/25 12:20:06;;;;;;;4.43;2.30;;;;;;;17.50;100.00;97817.41;15273065;19;20518;-78
2022/09/25 12:25:49;;;;;;;2.53;2.20;;;;;;;17.72;100.00;97811.56;15285125;19;20014;-78
2022/09/25 12:31:24;;;;;;;2.88;2.20;;;;;;;17.85;100.00;97806.00;15289240;19;20022;-81
2022/09/25 12:36:53;;;;;;;2.47;2.17;;;;;;;17.97;100.00;97797.13;15301487;19;20050;-81
2022/09/25 12:42:23;;;;;;;3.75;2.00;;;;;;;17.81;100.00;97793.91;15290363;19;20006;-80
2022/09/25 12:47:54;;;;;;;2.53;2.10;;;;;;;18.02;100.00;97792.66;15303354;19;20077;-80
2022/09/25 12:53:27;;;;;;;3.42;1.90;;;;;;;18.29;100.00;97783.38;15294368;19;20010;-80
2022/09/25 12:59:04;;;;;;;2.33;1.90;;;;;;;18.53;100.00;97778.06;15288940;19;20041;-78
2022/09/25 13:04:44;;;;;;;3.88;2.00;;;;;;;18.78;100.00;97767.88;15299654;19;20038;-79
2022/09/25 13:10:15;;;;;;;3.33;2.10;;;;;;;18.76;100.00;97766.44;15294882;19;20025;-80
2022/09/25 13:15:41;;;;;;;2.42;1.83;;;;;;;18.38;100.00;97768.38;15291302;19;20283;-82
2022/09/25 13:21:33;;;;;;;2.20;1.70;;;;;;;17.99;100.00;97762.31;15298019;19;20495;-80
2022/09/25 13:27:02;;;;;;;2.50;1.70;;;;;;;18.01;100.00;97763.75;15307851;19;20036;-82
2022/09/25 13:32:33;;;;;;;2.00;1.80;;;;;;;17.67;100.00;97760.47;15305187;19;20021;-82
2022/09/25 13:38:13;;;;;;;1.92;1.70;;;;;;;17.46;100.00;97753.56;15309602;19;20027;-82
2022/09/25 13:44:33;;;;;;;3.13;2.30;;;;;;;17.08;100.00;97752.56;15306320;19;20018;-81
2022/09/25 13:50:18;;;;;;;3.42;2.30;;;;;;;16.93;100.00;97752.84;15303250;19;20018;-82
2022/09/25 13:55:43;;;;;;;4.45;1.95;;;;;;;17.02;100.00;97752.63;15302713;19;20022;-82
2022/09/25 14:01:09;;;;;;;2.72;2.38;;;;;;;17.04;100.00;97750.50;15308941;19;20178;-82
2022/09/25 14:06:34;;;;;;;4.22;2.25;;;;;;;17.39;100.00;97758.22;15298962;19;20421;-83
2022/09/25 14:12:13;;;;;;;3.65;2.60;;;;;;;17.70;100.00;97745.56;15299463;19;20022;-82
2022/09/25 14:17:39;;;;;;;2.67;2.38;;;;;;;17.79;100.00;97744.25;15307835;19;20022;-82
2022/09/25 14:23:06;;;;;;;3.05;2.33;;;;;;;17.73;100.00;97736.97;15301047;19;20020;-83
2022/09/25 14:28:36;;;;;;;2.75;2.38;;;;;;;17.58;100.00;97728.31;15299794;19;20049;-81
2022/09/25 14:34:31;;;;;;;3.28;2.10;;;;;;;17.61;100.00;97720.53;15283415;19;20034;-82
2022/09/25 14:40:06;;;;;;;2.25;2.05;;;;;;;17.74;100.00;97721.47;15289099;19;20006;-84
2022/09/25 14:45:59;;;;;;;4.32;2.20;;;;;;;17.69;100.00;97717.50;15315362;19;20010;-86
2022/09/25 14:51:39;;;;;;;2.63;2.30;;;;;;;17.59;100.00;97710.91;15323019;19;20597;-84
2022/09/25 14:57:05;;;;;;;4.32;2.20;;;;;;;17.48;100.00;97710.59;15281554;19;20014;-82
2022/09/25 15:02:38;;;;;;;3.00;2.10;;;;;;;17.30;100.00;97713.28;15273078;19;20011;-82
2022/09/25 15:08:04;;;;;;;2.53;1.83;;;;;;;17.23;100.00;97711.41;15287832;19;20018;-83
2022/09/25 15:13:35;;;;;;;1.98;1.77;;;;;;;17.00;100.00;97711.19;15271604;19;20022;-83
2022/09/25 15:19:07;;;;;;;2.15;1.95;;;;;;;16.84;100.00;97712.50;15285718;19;20018;-82
2022/09/25 15:24:35;;;;;;;4.88;2.45;;;;;;;16.73;100.00;97705.91;15284324;19;20018;-79
2022/09/25 15:30:01;;;;;;;2.55;1.70;;;;;;;16.62;100.00;97700.13;15303611;19;20038;-79
2022/09/25 15:35:32;;;;;;;2.63;1.90;;;;;;;16.55;100.00;97704.72;15298687;19;20114;-80
2022/09/25 15:40:58;;;;;;;2.83;2.05;;;;;;;16.43;100.00;97695.59;15305787;19;20010;-79
2022/09/25 15:46:44;;;;;;;2.15;1.83;;;;;;;16.29;100.00;97697.56;15308230;19;20037;-80
2022/09/25 15:52:19;;;;;;;2.47;1.98;;;;;;;16.10;100.00;97702.88;15286671;19;20010;-82
2022/09/25 15:57:44;;;;;;;2.70;2.10;;;;;;;16.00;100.00;97699.75;15313712;19;20014;-80
2022/09/25 16:08:57;;;;;;;1.85;1.58;;;;;;;15.81;100.00;97701.47;15347203;19;20019;-82
2022/09/25 16:14:28;;;;;;;2.78;1.58;;;;;;;15.46;100.00;97693.59;15324857;19;20018;-82
2022/09/25 16:19:52;;;;;;;1.80;1.48;;;;;;;15.28;100.00;97694.25;15329117;19;20015;-81
2022/09/25 16:25:24;;;;;;;3.28;1.75;;;;;;;15.20;100.00;97706.13;15312639;19;20014;-81
2022/09/25 16:30:56;;;;;;;2.92;2.50;;;;;;;15.10;100.00;97701.97;15299887;19;20018;-83
2022/09/25 16:36:21;;;;;;;2.88;2.63;;;;;;;14.99;100.00;97702.59;15304430;19;20022;-82
2022/09/25 16:41:53;;;;;;;3.05;2.75;;;;;;;14.91;100.00;97710.91;15317778;19;20037;-79
2022/09/25 16:47:22;;;;;;;3.15;2.58;;;;;;;14.78;100.00;97709.84;15305063;19;20018;-78
2022/09/25 16:52:48;;;;;;;3.35;2.45;;;;;;;14.72;100.00;97721.53;15306351;19;20047;-79
2022/09/25 16:58:15;;;;;;;4.72;2.70;;;;;;;14.54;100.00;97734.75;15305673;19;20014;-78
2022/09/25 17:03:51;;;;;;;3.30;2.60;;;;;;;14.42;100.00;97758.91;15293963;19;20032;-84
2022/09/25 17:09:19;;;;;;;4.43;2.85;;;;;;;14.32;100.00;97762.00;15297230;19;20082;-81
2022/09/25 17:14:46;;;;;;;4.30;2.60;;;;;;;13.94;100.00;97771.41;15296406;19;20105;-78
2022/09/25 17:20:13;;;;;;;6.53;3.00;;;;;;;13.78;100.00;97786.09;15300599;19;20007;-79
2022/09/25 17:25:48;;;;;;;8.05;3.88;;;;;;;13.62;100.00;97789.06;15295329;19;20077;-78
2022/09/25 17:31:22;;;;;;;9.18;3.97;;;;;;;13.49;100.00;97796.06;15300971;19;20327;-78
2022/09/25 17:36:48;;;;;;;6.63;4.30;;;;;;;13.21;100.00;97802.25;15280258;19;20014;-78
2022/09/25 17:42:13;;;;;;;6.38;4.18;;;;;;;13.13;100.00;97815.06;15296347;19;20030;-77
2022/09/25 17:47:47;;;;;;;5.30;4.63;;;;;;;13.13;100.00;97825.88;15306959;19;20050;-79
2022/09/25 17:53:18;;;;;;;5.97;4.88;;;;;;;12.98;100.00;97825.94;15303537;19;20019;-78
2022/09/25 17:58:43;;;;;;;5.68;4.25;;;;;;;13.01;100.00;97833.63;15299768;19;20018;-80
2022/09/25 18:04:21;;;;;;;5.60;4.65;;;;;;;13.02;100.00;97844.28;15293838;19;20017;-83
2022/09/25 18:09:52;;;;;;;7.50;4.90;;;;;;;12.84;100.00;97835.75;15295549;19;20022;-80
2022/09/25 18:15:16;;;;;;;6.00;4.90;;;;;;;12.71;100.00;97834.56;15305676;19;20025;-79
2022/09/25 18:26:27;;;;;;;5.88;4.80;;;;;;;12.67;100.00;97849.50;15309926;19;20022;-79
2022/09/25 18:31:55;;;;;;;5.70;4.70;;;;;;;12.63;100.00;97845.47;15350390;19;20011;-80
2022/09/25 18:37:23;;;;;;;5.53;4.80;;;;;;;12.60;100.00;97851.25;15323201;19;20022;-79
2022/09/25 18:42:49;;;;;;;5.10;4.60;;;;;;;12.56;100.00;97858.09;15293414;19;20014;-79
2022/09/25 18:48:14;;;;;;;7.57;5.50;;;;;;;12.44;100.00;97855.00;15305254;19;20032;-79
2022/09/25 18:53:41;;;;;;;7.85;6.20;;;;;;;12.36;100.00;97860.50;15301503;19;20479;-78
2022/09/25 18:59:06;;;;;;;8.10;6.60;;;;;;;12.31;100.00;97866.47;15297750;19;20084;-78
2022/09/25 19:04:31;;;;;;;8.30;5.90;;;;;;;12.27;100.00;97873.25;15293220;19;20094;-79
2022/09/25 19:10:00;;;;;;;4.85;3.88;;;;;;;12.18;100.00;97859.00;15294518;19;20028;-78
2022/09/25 19:15:27;;;;;;;5.05;3.70;;;;;;;12.15;100.00;97865.63;15298054;19;20043;-79
2022/09/25 19:20:53;;;;;;;4.57;3.47;;;;;;;12.15;100.00;97862.09;15297847;19;20014;-78
2022/09/25 19:26:24;;;;;;;3.50;3.20;;;;;;;12.06;100.00;97863.19;15290411;19;20014;-78
2022/09/25 19:31:50;;;;;;;3.10;2.70;;;;;;;12.00;100.00;97853.97;15296067;19;20749;-79
2022/09/25 19:37:17;;;;;;;3.45;2.40;;;;;;;11.95;100.00;97848.25;15309828;19;20014;-81
2022/09/25 19:42:45;;;;;;;4.63;3.03;;;;;;;11.92;100.00;97846.78;15297048;19;20086;-79
2022/09/25 19:48:10;;;;;;;3.05;2.45;;;;;;;11.88;100.00;97843.59;15304839;19;20039;-79
2022/09/25 19:53:35;;;;;;;3.13;2.50;;;;;;;11.85;100.00;97851.22;15296829;19;20094;-80
2022/09/25 19:59:05;;;;;;;4.13;2.80;;;;;;;11.84;100.00;97849.53;15287277;19;20381;-79
2022/09/25 20:04:31;;;;;;;3.43;2.67;;;;;;;11.80;100.00;97849.06;15296442;19;20015;-79
2022/09/25 20:09:56;;;;;;;4.10;2.83;;;;;;;11.80;100.00;97861.75;15310002;19;20449;-78
2022/09/25 20:15:27;;;;;;;3.20;2.80;;;;;;;11.77;100.00;97862.09;15311202;19;20026;-79
2022/09/25 20:20:43;;;;;;;3.95;3.05;;;;;;;11.77;100.00;97862.91;15314106;19;20019;-78
2022/09/25 20:26:09;;;;;;;3.10;2.53;;;;;;;11.74;100.00;97852.50;15302538;19;20040;-78
2022/09/25 20:31:39;;;;;;;3.47;2.90;;;;;;;11.70;100.00;97853.88;15307530;19;20025;-80
2022/09/25 20:37:05;;;;;;;5.85;2.92;;;;;;;11.70;100.00;97852.00;15314489;19;20083;-80
2022/09/25 20:42:29;;;;;;;4.72;3.35;;;;;;;11.68;100.00;97853.22;15319002;19;20010;-79
2022/09/25 20:47:56;;;;;;;3.92;3.53;;;;;;;11.66;100.00;97857.97;15327427;19;20011;-79
2022/09/25 20:53:22;;;;;;;3.40;3.10;;;;;;;11.67;100.00;97854.25;15320113;19;20026;-79
2022/09/25 20:58:47;;;;;;;4.60;3.28;;;;;;;11.66;100.00;97850.72;15326552;19;20037;-80
2022/09/25 21:04:19;;;;;;;4.30;3.40;;;;;;;11.65;100.00;97857.13;15351621;19;20075;-80
2022/09/25 21:09:44;;;;;;;3.78;3.20;;;;;;;11.63;100.00;97858.34;15353699;19;20011;-79
2022/09/25 21:15:08;;;;;;;4.30;3.30;;;;;;;11.61;100.00;97842.31;15320885;19;20047;-80
2022/09/25 21:20:37;;;;;;;4.78;3.60;;;;;;;11.56;100.00;97844.75;15318249;19;20077;-79
2022/09/25 21:26:02;;;;;;;4.85;3.95;;;;;;;11.52;100.00;97838.88;15319667;19;20090;-80
2022/09/25 21:31:31;;;;;;;6.57;4.47;;;;;;;11.48;100.00;97831.31;15314189;19;20010;-79
2022/09/25 21:36:58;;;;;;;5.65;4.22;;;;;;;11.44;100.00;97827.31;14813657;19;10001159;-79
2022/09/25 21:42:23;;;;;;;5.03;4.43;;;;;;;11.43;100.00;97828.34;15317950;19;20014;-79
2022/09/25 21:47:48;;;;;;;8.10;4.50;;;;;;;11.41;100.00;97842.84;15321245;19;20033;-79
2022/09/25 21:53:15;;;;;;;5.25;4.45;;;;;;;11.40;100.00;97834.94;15311781;19;20022;-78
2022/09/25 21:58:41;;;;;;;6.03;4.88;;;;;;;11.38;100.00;97832.41;15311208;19;20024;-78
2022/09/25 22:04:12;;;;;;;6.82;5.35;;;;;;;11.33;100.00;97833.97;15323693;19;20058;-80
2022/09/25 22:09:39;;;;;;;7.03;6.00;;;;;;;11.33;100.00;97833.97;15360879;19;20021;-79
2022/09/25 22:15:04;;;;;;;7.03;6.18;;;;;;;11.32;100.00;97827.75;15295275;19;20039;-78
2022/09/25 22:20:29;;;;;;;9.93;6.57;;;;;;;11.30;100.00;97824.38;15296558;19;20039;-79
2022/09/25 22:25:56;;;;;;;9.35;6.38;;;;;;;11.31;100.00;97819.81;15302372;19;20010;-79
2022/09/25 22:31:23;;;;;;;8.25;6.30;;;;;;;11.26;100.00;97814.97;15301941;19;20081;-80
2022/09/25 22:36:48;;;;;;;7.43;6.30;;;;;;;11.28;100.00;97809.41;15306337;19;20018;-79
2022/09/25 22:42:19;;;;;;;9.02;6.57;;;;;;;11.23;100.00;97799.19;15301937;19;20364;-79
2022/09/25 22:47:44;;;;;;;7.13;6.20;;;;;;;11.23;100.00;97796.47;15306521;19;20031;-79
2022/09/25 22:53:08;;;;;;;7.20;6.15;;;;;;;11.19;100.00;97800.53;15302881;19;20770;-79
2022/09/25 22:58:35;;;;;;;7.85;6.43;;;;;;;11.21;100.00;97793.13;15311857;19;20019;-79
2022/09/25 23:04:04;;;;;;;9.38;6.05;;;;;;;11.19;100.00;97784.38;15303350;19;20013;-79
2022/09/25 23:09:29;;;;;;;7.75;6.20;;;;;;;11.13;100.00;97793.16;15314413;19;20055;-79
2022/09/25 23:14:56;;;;;;;8.73;6.30;;;;;;;11.10;100.00;97791.69;15312687;19;20022;-79
2022/09/25 23:20:21;;;;;;;7.40;6.25;;;;;;;11.10;100.00;97784.44;15307367;19;20011;-79
2022/09/25 23:25:46;;;;;;;6.53;5.70;;;;;;;11.07;100.00;97784.78;15302256;19;20018;-79
2022/09/25 23:31:16;;;;;;;6.50;5.50;;;;;;;11.06;100.00;97777.72;15318213;19;20051;-79
2022/09/25 23:36:41;;;;;;;7.40;5.57;;;;;;;11.06;100.00;97769.63;15302901;19;20037;-78
2022/09/25 23:42:06;;;;;;;6.05;4.60;;;;;;;11.06;100.00;97764.25;15302984;19;20371;-78
2022/09/25 23:47:33;;;;;;;5.97;4.50;;;;;;;11.05;100.00;97765.25;15317044;19;20006;-79
2022/09/25 23:52:58;;;;;;;6.05;4.47;;;;;;;11.06;100.00;97766.94;15324617;19;20049;-79
2022/09/25 23:58:24;;;;;;;8.02;5.00;;;;;;;11.05;100.00;97764.44;15326681;19;20023;-79
